Time;durP1;ratioP1;P1;durP2;ratioP2;P2;SDS_P1;SDS_P2;PMS_P1;PMS_P2;Temp;Humidity;BMP_temperature;BMP_pressure;BME280_temperature;BME280_humidity;BME280_pressure;Samples;Min_cycle;Max_cycle;Signal;HPM_P1;HPM_P2
2023/07/15 00:00:21;;;;;;;7.60;3.30;;;;;;;19.88;59.55;100448.81;105430;1259;64920;-60
2023/07/15 00:02:51;;;;;;;6.80;3.30;;;;;;;19.86;59.66;100450.80;105411;1253;61298;-63
2023/07/15 00:05:22;;;;;;;7.60;3.60;;;;;;;19.87;59.57;100445.69;105428;1259;64417;-64
2023/07/15 00:07:50;;;;;;;8.90;3.30;;;;;;;19.89;59.64;100448.66;105380;1254;62856;-61
2023/07/15 00:10:17;;;;;;;5.90;3.50;;;;;;;19.90;59.47;100450.95;105369;1254;60549;-62
2023/07/15 00:12:45;;;;;;;7.30;3.40;;;;;;;19.88;59.42;100455.39;105290;1258;64924;-62
2023/07/15 00:15:12;;;;;;;8.00;3.40;;;;;;;19.85;59.26;100456.83;105381;1253;61344;-63
2023/07/15 00:17:40;;;;;;;6.80;3.60;;;;;;;19.81;59.17;100455.85;105294;1260;63742;-61
2023/07/15 00:20:14;;;;;;;6.30;2.90;;;;;;;19.76;59.15;100456.23;105603;1256;60565;-60
2023/07/15 00:22:43;;;;;;;8.00;3.40;;;;;;;19.73;59.25;100457.48;105376;1254;60444;-63
2023/07/15 00:25:15;;;;;;;7.70;3.40;;;;;;;19.73;59.18;100461.98;105329;1253;64935;-62
2023/07/15 00:27:43;;;;;;;5.40;3.00;;;;;;;19.74;59.15;100462.04;106407;1253;61866;-62
2023/07/15 00:30:13;;;;;;;8.30;4.90;;;;;;;19.74;59.10;100464.85;105474;1254;63678;-61
2023/07/15 00:32:44;;;;;;;7.50;3.60;;;;;;;19.72;59.19;100466.33;105607;1258;60556;-60
2023/07/15 00:35:22;;;;;;;5.10;3.00;;;;;;;19.68;59.33;100464.26;105627;1259;60524;-61
2023/07/15 00:37:50;;;;;;;6.60;3.70;;;;;;;19.64;59.22;100467.92;105530;1253;63639;-63
2023/07/15 00:40:17;;;;;;;6.90;3.30;;;;;;;19.62;59.24;100470.75;105481;1259;60553;-63
2023/07/15 00:43:23;;;;;;;7.40;3.60;;;;;;;19.60;59.12;100470.75;105333;1254;63751;-66
2023/07/15 00:46:21;;;;;;;7.50;3.20;;;;;;;19.60;59.04;100470.02;105276;1255;60470;-60
2023/07/15 00:48:58;;;;;;;8.50;3.30;;;;;;;19.61;59.16;100470.98;105558;1257;60472;-62
2023/07/15 00:51:26;;;;;;;5.90;3.60;;;;;;;19.59;59.20;100476.23;105467;1259;65374;-58
2023/07/15 00:53:55;;;;;;;7.40;3.30;;;;;;;19.54;59.37;100475.22;105537;1253;61378;-58
2023/07/15 00:56:23;;;;;;;6.40;3.20;;;;;;;19.52;59.27;100474.35;105271;1254;64218;-56
2023/07/15 00:58:50;;;;;;;4.70;2.70;;;;;;;19.47;59.33;100472.97;105364;1256;60544;-57
2023/07/15 01:01:18;;;;;;;12.30;3.50;;;;;;;19.41;59.34;100476.35;105255;1253;60611;-59
2023/07/15 01:03:45;;;;;;;6.70;3.10;;;;;;;19.35;59.48;100478.61;105318;1253;64924;-58
2023/07/15 01:06:14;;;;;;;7.10;3.20;;;;;;;19.37;59.62;100480.20;105881;1254;61865;-59
2023/07/15 01:08:42;;;;;;;6.60;3.60;;;;;;;19.43;59.59;100482.80;105471;1256;63688;-58
2023/07/15 01:11:10;;;;;;;5.60;3.00;;;;;;;19.48;59.54;100482.42;105320;1253;60537;-59
2023/07/15 01:13:38;;;;;;;6.00;3.00;;;;;;;19.49;59.51;100481.98;105337;1259;59572;-60
2023/07/15 01:16:05;;;;;;;6.50;3.60;;;;;;;19.46;59.45;100482.52;105389;1254;63711;-58
2023/07/15 01:18:33;;;;;;;9.00;3.50;;;;;;;19.41;59.47;100482.77;105415;1259;61490;-62
2023/07/15 01:21:01;;;;;;;5.70;3.40;;;;;;;19.34;59.54;100485.38;105270;1255;63727;-59
2023/07/15 01:23:29;;;;;;;5.90;3.10;;;;;;;19.26;59.71;100482.69;105383;1254;60723;-64
2023/07/15 01:25:57;;;;;;;8.60;3.10;;;;;;;19.19;60.12;100483.67;105474;1259;60552;-63
2023/07/15 01:28:25;;;;;;;5.50;3.30;;;;;;;19.16;60.54;100486.13;105343;1255;67024;-66
2023/07/15 01:30:52;;;;;;;5.10;3.00;;;;;;;19.17;60.59;100491.19;105829;1253;61971;-63
2023/07/15 01:33:21;;;;;;;6.40;3.20;;;;;;;19.17;60.60;100498.48;105297;1256;63788;-64
2023/07/15 01:35:49;;;;;;;6.60;3.40;;;;;;;19.14;60.69;100497.57;105414;1256;60576;-67
2023/07/15 01:38:17;;;;;;;6.30;3.60;;;;;;;19.09;60.84;100497.73;106019;1253;60448;-65
2023/07/15 01:40:45;;;;;;;7.50;3.40;;;;;;;19.04;60.88;100495.83;105640;1259;64971;-60
2023/07/15 01:43:13;;;;;;;5.90;3.20;;;;;;;19.00;60.83;100498.78;105403;1259;61538;-64
2023/07/15 01:45:41;;;;;;;6.30;3.20;;;;;;;18.97;60.83;100496.16;105393;1254;63804;-61
2023/07/15 01:48:08;;;;;;;5.30;3.00;;;;;;;18.97;60.43;100498.27;105356;1256;60654;-62
2023/07/15 01:50:36;;;;;;;9.60;3.50;;;;;;;18.99;60.36;100498.73;105287;1258;60365;-60
2023/07/15 01:53:04;;;;;;;5.80;3.40;;;;;;;19.01;60.23;100503.35;105651;1259;64917;-61
2023/07/15 01:55:32;;;;;;;6.80;3.40;;;;;;;19.02;60.17;100507.27;105369;1259;61305;-60
2023/07/15 01:58:01;;;;;;;7.30;3.80;;;;;;;19.01;59.97;100511.08;105369;1256;62510;-63
2023/07/15 02:00:29;;;;;;;6.70;3.80;;;;;;;19.00;59.86;100514.29;105488;1260;60563;-64
2023/07/15 02:02:57;;;;;;;5.90;3.20;;;;;;;18.98;59.89;100517.49;105366;1253;60472;-64
2023/07/15 02:05:25;;;;;;;6.70;3.60;;;;;;;18.96;59.94;100515.77;105587;1253;64900;-64
2023/07/15 02:07:53;;;;;;;7.00;3.40;;;;;;;18.97;59.98;100516.06;105353;1254;61840;-65
2023/07/15 02:10:22;;;;;;;7.40;3.00;;;;;;;19.00;59.89;100522.77;105612;1253;62452;-63
2023/07/15 02:12:50;;;;;;;6.60;3.60;;;;;;;19.05;59.92;100523.29;105384;1259;60559;-64
2023/07/15 02:15:17;;;;;;;7.30;3.50;;;;;;;19.09;60.07;100523.70;105338;1257;60485;-64
2023/07/15 02:17:45;;;;;;;6.60;3.60;;;;;;;19.11;60.20;100526.83;105341;1253;65383;-64
2023/07/15 02:20:13;;;;;;;6.60;4.00;;;;;;;19.12;60.20;100530.15;105544;1254;61615;-64
2023/07/15 02:22:41;;;;;;;6.20;2.90;;;;;;;19.13;60.13;100532.69;105266;1259;62519;-61
2023/07/15 02:25:10;;;;;;;8.50;3.80;;;;;;;19.13;60.05;100534.28;105749;1253;60451;-60
2023/07/15 02:27:38;;;;;;;7.60;3.80;;;;;;;19.10;59.93;100534.51;105316;1254;60578;-60
2023/07/15 02:30:08;;;;;;;6.10;3.20;;;;;;;19.08;59.67;100530.57;105759;1254;66037;-60
2023/07/15 02:32:40;;;;;;;7.50;3.60;;;;;;;19.08;59.48;100531.19;105418;1257;60466;-59
2023/07/15 02:35:12;;;;;;;5.60;3.30;;;;;;;19.04;59.62;100535.41;105463;1254;63788;-60
2023/07/15 02:37:41;;;;;;;6.80;3.60;;;;;;;18.99;59.83;100536.64;105435;1253;60626;-57
2023/07/15 02:40:10;;;;;;;8.70;3.40;;;;;;;18.93;59.89;100539.27;105432;1258;60368;-59
2023/07/15 02:42:38;;;;;;;6.00;3.60;;;;;;;18.88;60.11;100541.41;105412;1260;64970;-60
2023/07/15 02:45:09;;;;;;;5.90;3.30;;;;;;;18.88;60.10;100543.91;105827;1254;61464;-63
2023/07/15 02:47:39;;;;;;;6.70;3.20;;;;;;;18.90;60.18;100546.36;105935;1257;63748;-61
2023/07/15 02:50:08;;;;;;;6.00;3.40;;;;;;;18.92;60.07;100542.05;105528;1259;60572;-62
2023/07/15 02:52:37;;;;;;;6.80;3.30;;;;;;;18.92;60.16;100545.88;105356;1259;60445;-62
2023/07/15 02:55:06;;;;;;;5.70;3.00;;;;;;;18.95;60.15;100545.81;105455;1259;65479;-59
2023/07/15 02:57:34;;;;;;;6.80;3.50;;;;;;;18.94;60.08;100547.60;105322;1259;60245;-57
2023/07/15 03:00:10;;;;;;;11.80;3.80;;;;;;;18.92;60.12;100549.42;105310;1255;63737;-58
2023/07/15 03:02:38;;;;;;;5.40;3.40;;;;;;;18.91;60.10;100551.76;105439;1255;60491;-58
2023/07/15 03:05:07;;;;;;;5.20;2.90;;;;;;;18.90;60.17;100553.03;105413;1259;60357;-60
2023/07/15 03:07:35;;;;;;;5.50;3.10;;;;;;;18.92;60.15;100553.42;105504;1253;63958;-62
2023/07/15 03:10:03;;;;;;;5.80;3.40;;;;;;;18.96;60.21;100555.47;105506;1256;61383;-63
2023/07/15 03:12:30;;;;;;;7.40;3.80;;;;;;;18.98;60.02;100553.63;105430;1257;63676;-61
2023/07/15 03:14:58;;;;;;;8.00;4.10;;;;;;;18.99;60.20;100554.36;105382;1254;60587;-63
2023/07/15 03:17:26;;;;;;;7.00;3.90;;;;;;;19.00;60.08;100555.89;105329;1254;60441;-66
2023/07/15 03:19:54;;;;;;;7.10;3.70;;;;;;;19.00;60.08;100549.25;105328;1258;65408;-60
2023/07/15 03:22:21;;;;;;;8.50;3.70;;;;;;;19.02;60.10;100550.84;105277;1253;61358;-56
2023/07/15 03:24:49;;;;;;;6.90;3.50;;;;;;;19.07;60.12;100552.45;105397;1254;62436;-57
2023/07/15 03:27:17;;;;;;;6.60;2.90;;;;;;;19.11;60.05;100552.09;105316;1254;60586;-58
2023/07/15 03:29:44;;;;;;;8.30;3.70;;;;;;;19.16;59.94;100548.07;105366;1253;60564;-57
2023/07/15 03:32:12;;;;;;;7.80;4.00;;;;;;;19.18;59.83;100547.75;105369;1259;64873;-58
2023/07/15 03:34:39;;;;;;;5.60;3.50;;;;;;;19.23;59.82;100549.06;105422;1258;61624;-59
2023/07/15 03:37:09;;;;;;;7.00;3.50;;;;;;;19.23;59.81;100551.37;105439;1254;64746;-57
2023/07/15 03:39:37;;;;;;;5.00;2.90;;;;;;;19.25;59.86;100556.47;105422;1259;60586;-57
2023/07/15 03:42:04;;;;;;;6.10;3.90;;;;;;;19.29;59.85;100553.66;106331;1254;60471;-57
2023/07/15 03:44:32;;;;;;;7.20;3.60;;;;;;;19.38;59.66;100554.09;105414;1259;64824;-62
2023/07/15 03:46:59;;;;;;;5.30;3.50;;;;;;;19.52;59.53;100562.56;105350;1253;61951;-61
2023/07/15 03:49:27;;;;;;;9.20;3.90;;;;;;;19.61;59.17;100564.40;105402;1259;62446;-62
2023/07/15 03:51:54;;;;;;;7.60;3.90;;;;;;;19.67;59.00;100562.63;105400;1253;60463;-70
2023/07/15 03:54:21;;;;;;;6.40;3.70;;;;;;;19.73;58.92;100564.70;105951;1258;59707;-69
2023/07/15 03:56:49;;;;;;;6.20;4.10;;;;;;;19.78;58.88;100568.72;105938;1253;65655;-66
2023/07/15 03:59:16;;;;;;;5.40;3.30;;;;;;;19.85;58.88;100569.66;105609;1253;61358;-67
2023/07/15 04:01:44;;;;;;;7.30;3.30;;;;;;;19.93;58.52;100569.76;105354;1255;63682;-65
2023/07/15 04:04:12;;;;;;;9.30;3.50;;;;;;;20.00;58.45;100572.38;105437;1254;60480;-69
2023/07/15 04:06:39;;;;;;;9.10;3.60;;;;;;;20.07;58.01;100570.33;105952;1259;60420;-70
2023/07/15 04:09:11;;;;;;;6.20;3.60;;;;;;;20.14;57.77;100570.95;105906;1259;64928;-70
2023/07/15 04:11:39;;;;;;;8.70;3.70;;;;;;;20.18;57.62;100569.68;105425;1253;352593;-68
2023/07/15 04:16:06;;;;;;;7.20;3.60;;;;;;;19.99;58.19;100574.13;102917;1292;601232;-66
2023/07/15 04:18:34;;;;;;;6.20;3.70;;;;;;;20.15;57.56;100575.02;105263;1269;59276;-66
2023/07/15 04:21:01;;;;;;;6.40;3.20;;;;;;;20.19;57.59;100578.61;105233;1267;59962;-63
2023/07/15 04:23:29;;;;;;;7.10;3.60;;;;;;;20.20;57.64;100586.59;105160;1266;63290;-64
2023/07/15 04:25:57;;;;;;;6.90;3.70;;;;;;;20.21;57.66;100589.89;105213;1270;60251;-61
2023/07/15 04:28:24;;;;;;;7.40;3.50;;;;;;;20.23;57.69;100591.41;104569;1266;64102;-62
2023/07/15 04:30:51;;;;;;;6.20;3.80;;;;;;;20.30;57.51;100597.39;103627;1264;1785606;-61
2023/07/15 04:33:19;;;;;;;6.70;3.30;;;;;;;20.37;57.08;100595.31;104839;1261;59237;-63
2023/07/15 04:35:46;;;;;;;6.80;3.80;;;;;;;20.43;57.14;100593.02;104959;1267;63292;-64
2023/07/15 04:38:14;;;;;;;6.70;3.50;;;;;;;20.42;57.15;100597.34;105302;1254;61380;-65
2023/07/15 04:40:42;;;;;;;5.70;3.50;;;;;;;20.37;57.13;100593.81;105230;1257;63919;-64
2023/07/15 04:43:09;;;;;;;8.90;3.50;;;;;;;20.37;57.42;100597.09;105269;1257;59765;-65
2023/07/15 04:45:37;;;;;;;7.40;3.50;;;;;;;20.39;57.31;100597.16;105389;1260;59646;-61
2023/07/15 04:48:04;;;;;;;8.20;3.70;;;;;;;20.42;57.27;100602.48;105308;1258;64074;-60
2023/07/15 04:50:33;;;;;;;7.40;3.80;;;;;;;20.47;57.13;100602.71;105317;1254;61381;-63
2023/07/15 04:53:00;;;;;;;7.30;3.80;;;;;;;20.51;57.04;100604.54;105333;1260;63735;-63
2023/07/15 04:55:28;;;;;;;6.70;3.80;;;;;;;20.54;56.99;100608.88;105317;1254;59692;-63
2023/07/15 04:57:55;;;;;;;5.70;4.20;;;;;;;20.57;56.96;100605.71;105305;1260;59688;-62
2023/07/15 05:00:23;;;;;;;6.70;3.90;;;;;;;20.62;56.99;100603.56;105364;1262;64138;-63
2023/07/15 05:02:51;;;;;;;6.20;3.80;;;;;;;20.69;57.00;100607.80;105384;1260;61427;-63
2023/07/15 05:05:18;;;;;;;8.10;3.70;;;;;;;20.77;56.66;100611.65;105375;1260;63651;-60
2023/07/15 05:07:49;;;;;;;6.60;3.50;;;;;;;20.84;56.56;100613.98;105451;1257;60085;-63
2023/07/15 05:10:25;;;;;;;6.20;3.20;;;;;;;20.92;56.55;100614.71;105523;1255;59561;-66
2023/07/15 05:12:53;;;;;;;8.00;3.80;;;;;;;20.97;56.24;100616.45;105371;1260;64182;-63
2023/07/15 05:15:20;;;;;;;6.80;3.50;;;;;;;21.02;56.28;100618.39;105457;1257;62095;-65
2023/07/15 05:17:48;;;;;;;6.80;3.80;;;;;;;21.06;56.20;100620.15;105215;1257;63715;-64
2023/07/15 05:20:18;;;;;;;6.80;4.00;;;;;;;21.04;55.86;100619.77;105308;1260;59621;-60
2023/07/15 05:22:46;;;;;;;8.20;3.80;;;;;;;21.06;55.82;100614.23;105318;1259;59637;-62
2023/07/15 05:25:15;;;;;;;7.40;3.60;;;;;;;21.11;56.09;100613.42;105531;1254;62879;-62
2023/07/15 05:27:43;;;;;;;5.20;3.30;;;;;;;21.16;56.21;100614.36;105146;1257;61368;-61
2023/07/15 05:30:11;;;;;;;6.30;3.70;;;;;;;21.25;55.87;100614.05;109095;1257;64195;-61
2023/07/15 05:32:38;;;;;;;7.70;3.90;;;;;;;21.35;55.27;100614.02;109074;1254;57585;-60
2023/07/15 05:35:07;;;;;;;6.70;3.10;;;;;;;21.45;55.10;100614.75;105980;1255;59741;-68
2023/07/15 05:37:35;;;;;;;6.60;3.30;;;;;;;21.57;54.88;100615.48;105455;1260;64139;-74
2023/07/15 05:40:09;;;;;;;8.80;3.70;;;;;;;21.66;55.02;100616.65;105337;1260;60229;-67
2023/07/15 05:42:41;;;;;;;8.00;3.80;;;;;;;21.74;54.62;100616.81;109063;1254;63726;-63
2023/07/15 05:45:10;;;;;;;5.90;3.30;;;;;;;21.80;54.86;100617.70;108194;1260;59755;-62
2023/07/15 05:47:38;;;;;;;7.90;3.70;;;;;;;21.88;54.92;100617.03;109226;1254;57768;-63
2023/07/15 05:50:07;;;;;;;5.90;3.50;;;;;;;21.96;54.26;100619.39;109125;1254;64108;-61
2023/07/15 05:52:34;;;;;;;6.10;4.20;;;;;;;22.03;53.82;100619.44;109118;1257;60180;-68
2023/07/15 05:55:02;;;;;;;8.60;4.00;;;;;;;22.09;53.69;100618.48;108089;1254;63769;-67
2023/07/15 05:57:30;;;;;;;6.00;3.50;;;;;;;22.16;53.27;100618.30;105879;1255;59797;-61
2023/07/15 05:59:58;;;;;;;6.70;3.40;;;;;;;22.21;53.31;100616.00;105327;1260;59663;-61
2023/07/15 06:02:26;;;;;;;7.00;3.10;;;;;;;22.29;53.51;100614.85;105321;1257;66274;-65
2023/07/15 06:04:54;;;;;;;6.00;3.20;;;;;;;22.40;53.10;100620.02;105372;1260;60121;-62
2023/07/15 06:07:22;;;;;;;6.00;3.30;;;;;;;22.50;53.19;100624.41;105422;1257;63716;-65
2023/07/15 06:09:51;;;;;;;7.70;3.70;;;;;;;22.61;52.90;100627.17;105681;1255;59662;-68
2023/07/15 06:12:19;;;;;;;8.60;3.30;;;;;;;22.70;52.43;100627.98;106413;1259;59253;-67
2023/07/15 06:14:46;;;;;;;6.20;3.10;;;;;;;22.77;51.80;100627.44;105498;1260;64068;-59
2023/07/15 06:17:14;;;;;;;7.30;3.70;;;;;;;22.84;51.65;100624.58;105458;1259;60195;-60
2023/07/15 06:19:42;;;;;;;7.10;3.80;;;;;;;22.90;51.06;100625.41;105434;1257;62468;-59
2023/07/15 06:22:09;;;;;;;7.80;3.20;;;;;;;22.96;50.98;100628.01;105342;1260;59672;-62
2023/07/15 06:24:37;;;;;;;5.90;3.30;;;;;;;23.00;50.80;100630.73;105311;1255;59656;-66
2023/07/15 06:27:06;;;;;;;6.40;3.10;;;;;;;23.02;50.24;100628.14;105432;1254;64099;-68
2023/07/15 06:29:34;;;;;;;6.40;3.10;;;;;;;23.06;50.34;100627.20;105586;1260;61346;-62
2023/07/15 06:32:01;;;;;;;6.70;3.30;;;;;;;23.10;50.23;100634.51;105495;1255;62493;-67
2023/07/15 06:34:29;;;;;;;7.40;3.60;;;;;;;23.14;50.43;100633.41;105334;1260;59743;-64
2023/07/15 06:36:57;;;;;;;9.50;3.40;;;;;;;23.18;50.29;100632.05;105465;1254;61477;-65
2023/07/15 06:39:24;;;;;;;6.50;3.50;;;;;;;23.20;50.13;100632.64;105226;1254;64189;-66
2023/07/15 06:41:52;;;;;;;5.70;2.90;;;;;;;23.24;50.46;100634.19;105479;1255;61418;-61
2023/07/15 06:44:20;;;;;;;7.20;3.60;;;;;;;23.29;50.03;100635.70;105321;1263;62423;-63
2023/07/15 06:46:47;;;;;;;5.30;3.20;;;;;;;23.34;49.54;100634.48;105386;1260;59745;-65
2023/07/15 06:49:15;;;;;;;6.60;3.40;;;;;;;23.40;49.65;100636.30;105302;1260;59612;-62
2023/07/15 06:51:42;;;;;;;6.00;3.00;;;;;;;23.47;49.71;100635.10;105329;1260;64251;-67
2023/07/15 06:54:11;;;;;;;5.40;3.20;;;;;;;23.53;49.73;100634.50;105482;1254;61296;-65
2023/07/15 06:56:39;;;;;;;6.00;3.10;;;;;;;23.58;49.74;100634.76;105340;1257;63728;-59
2023/07/15 06:59:07;;;;;;;6.50;3.30;;;;;;;23.62;49.01;100637.71;105403;1255;59740;-62
2023/07/15 07:01:34;;;;;;;7.60;4.00;;;;;;;23.67;48.69;100637.98;105380;1258;59699;-59
2023/07/15 07:04:02;;;;;;;7.00;3.70;;;;;;;23.71;48.85;100639.63;105452;1262;64726;-64
2023/07/15 07:06:30;;;;;;;7.60;3.30;;;;;;;23.76;48.80;100632.20;105300;1258;60226;-59
2023/07/15 07:08:57;;;;;;;5.40;3.30;;;;;;;23.82;48.75;100634.59;105422;1254;64850;-63
2023/07/15 07:11:25;;;;;;;6.40;3.20;;;;;;;23.88;47.66;100635.73;105358;1255;59706;-59
2023/07/15 07:13:52;;;;;;;7.40;3.10;;;;;;;23.92;47.09;100635.81;105658;1254;59583;-63
2023/07/15 07:16:20;;;;;;;6.10;3.60;;;;;;;23.96;48.02;100638.83;105789;1258;62870;-61
2023/07/15 07:18:47;;;;;;;6.20;3.80;;;;;;;24.02;48.33;100641.85;105540;1257;61503;-59
2023/07/15 07:21:15;;;;;;;11.70;4.10;;;;;;;24.08;48.08;100645.09;105382;1260;64835;-62
2023/07/15 07:23:43;;;;;;;6.40;3.50;;;;;;;24.16;48.49;100644.68;105466;1255;61438;-61
2023/07/15 07:26:11;;;;;;;7.80;3.60;;;;;;;24.21;48.12;100648.75;105732;1252;59763;-60
2023/07/15 07:28:40;;;;;;;8.00;4.00;;;;;;;24.26;47.84;100651.19;105749;1256;64132;-65
2023/07/15 07:31:09;;;;;;;5.40;3.50;;;;;;;24.31;47.39;100651.92;105774;1252;61420;-64
2023/07/15 07:33:37;;;;;;;7.20;3.80;;;;;;;24.36;47.46;100654.20;105630;1256;63703;-62
2023/07/15 07:36:05;;;;;;;9.40;3.40;;;;;;;24.41;47.19;100655.64;105581;1257;59727;-63
2023/07/15 07:38:33;;;;;;;7.90;2.90;;;;;;;24.46;46.81;100650.14;105641;1257;59553;-60
2023/07/15 07:41:08;;;;;;;8.60;3.80;;;;;;;24.50;46.65;100652.95;105796;1257;64126;-63
2023/07/15 07:43:37;;;;;;;6.30;3.30;;;;;;;24.55;46.22;100654.95;105706;1252;61634;-65
2023/07/15 07:46:07;;;;;;;6.40;3.40;;;;;;;24.62;45.35;100651.89;105831;1257;64213;-65
2023/07/15 07:48:35;;;;;;;7.50;3.80;;;;;;;24.67;45.56;100654.23;105802;1252;59633;-61
2023/07/15 07:51:03;;;;;;;7.60;3.50;;;;;;;24.74;46.18;100655.94;105706;1251;59736;-69
2023/07/15 07:53:30;;;;;;;6.10;3.10;;;;;;;24.79;46.29;100654.92;105724;1256;64234;-60
2023/07/15 07:55:58;;;;;;;7.10;2.90;;;;;;;24.86;45.25;100655.88;105857;1257;61398;-59
2023/07/15 07:58:26;;;;;;;7.40;3.20;;;;;;;24.92;44.76;100659.50;105680;1254;64309;-61
2023/07/15 08:00:54;;;;;;;4.90;2.70;;;;;;;24.99;44.69;100660.69;105634;1252;59758;-71
2023/07/15 08:03:21;;;;;;;5.70;2.90;;;;;;;25.06;44.72;100660.08;105644;1257;59673;-65
2023/07/15 08:05:49;;;;;;;7.10;3.10;;;;;;;25.13;44.44;100662.76;105626;1251;64126;-59
2023/07/15 08:08:17;;;;;;;8.10;3.50;;;;;;;25.19;44.03;100661.03;105598;1252;61362;-58
2023/07/15 08:10:44;;;;;;;5.10;3.00;;;;;;;25.23;43.47;100662.64;105599;1253;62490;-63
2023/07/15 08:13:11;;;;;;;6.80;3.00;;;;;;;25.27;43.52;100663.96;105455;1252;59732;-60
2023/07/15 08:15:39;;;;;;;6.90;3.00;;;;;;;25.35;43.21;100664.23;105671;1256;59573;-64
2023/07/15 08:18:07;;;;;;;5.50;2.70;;;;;;;25.42;43.85;100667.02;105592;1251;64632;-60
2023/07/15 08:20:37;;;;;;;5.70;3.30;;;;;;;25.51;43.18;100666.31;105737;1252;61367;-63
2023/07/15 08:23:04;;;;;;;6.50;2.80;;;;;;;25.58;42.53;100664.59;105556;1254;63683;-63
2023/07/15 08:25:32;;;;;;;6.80;2.60;;;;;;;25.62;42.72;100663.60;105757;1252;60533;-57
2023/07/15 08:28:00;;;;;;;6.70;2.90;;;;;;;25.67;41.37;100659.55;105486;1251;60355;-58
2023/07/15 08:30:27;;;;;;;5.50;2.70;;;;;;;25.70;41.63;100663.40;105541;1251;65100;-64
2023/07/15 08:32:55;;;;;;;6.00;3.00;;;;;;;25.72;41.31;100660.73;105617;1251;60473;-60
2023/07/15 08:35:23;;;;;;;4.80;2.80;;;;;;;25.76;41.90;100662.90;105549;1254;63665;-73
2023/07/15 08:37:50;;;;;;;5.30;3.20;;;;;;;25.83;42.15;100663.39;105992;1251;60449;-61
2023/07/15 08:40:21;;;;;;;6.00;2.90;;;;;;;25.88;40.70;100660.02;105498;1251;60485;-61
2023/07/15 08:42:49;;;;;;;5.20;2.80;;;;;;;25.90;41.06;100660.08;105749;1251;63613;-64
2023/07/15 08:45:17;;;;;;;5.30;2.80;;;;;;;25.93;40.86;100654.35;105548;1257;61286;-62
2023/07/15 08:47:44;;;;;;;5.50;3.20;;;;;;;25.95;41.36;100653.26;105878;1257;63660;-63
2023/07/15 08:50:15;;;;;;;4.70;2.70;;;;;;;26.01;41.81;100656.05;105780;1259;60562;-61
2023/07/15 08:52:43;;;;;;;6.90;2.80;;;;;;;26.08;40.89;100646.76;106198;1255;60424;-59
2023/07/15 08:55:12;;;;;;;6.50;2.80;;;;;;;26.15;40.03;100645.58;105590;1257;64959;-60
2023/07/15 08:57:39;;;;;;;8.20;2.80;;;;;;;26.21;40.47;100644.92;105651;1251;64090;-59
2023/07/15 09:00:09;;;;;;;5.30;2.20;;;;;;;26.28;38.50;100646.48;105645;1257;62642;-62
2023/07/15 09:02:37;;;;;;;5.40;2.90;;;;;;;26.33;38.82;100643.73;105672;1250;60437;-60
2023/07/15 09:05:07;;;;;;;7.30;2.70;;;;;;;26.39;39.45;100645.21;105769;1252;60443;-64
2023/07/15 09:07:56;;;;;;;4.90;2.50;;;;;;;26.45;40.19;100640.38;106092;1251;64922;-62
2023/07/15 09:10:24;;;;;;;5.60;2.50;;;;;;;26.49;38.93;100639.98;105700;1256;60449;-61
2023/07/15 09:12:53;;;;;;;4.20;2.20;;;;;;;26.49;38.22;100642.34;105631;1254;63725;-64
2023/07/15 09:15:21;;;;;;;6.50;2.70;;;;;;;26.51;38.08;100643.86;106280;1251;60525;-63
2023/07/15 09:18:01;;;;;;;5.60;2.70;;;;;;;26.55;38.11;100637.89;105938;1252;60549;-63
2023/07/15 09:20:29;;;;;;;4.60;2.30;;;;;;;26.57;37.75;100636.29;105646;1251;64871;-64
2023/07/15 09:22:58;;;;;;;4.60;2.20;;;;;;;26.55;37.98;100644.45;105811;1251;61371;-66
2023/07/15 09:25:26;;;;;;;5.00;2.20;;;;;;;26.53;38.47;100645.55;105635;1253;63688;-61
2023/07/15 09:27:53;;;;;;;8.60;2.60;;;;;;;26.56;38.88;100646.06;105656;1256;60526;-62
2023/07/15 09:30:22;;;;;;;4.30;2.20;;;;;;;26.64;39.30;100644.85;105722;1252;60444;-66
2023/07/15 09:32:49;;;;;;;4.70;2.30;;;;;;;26.72;38.63;100648.63;105747;1257;64956;-61
2023/07/15 09:35:18;;;;;;;6.40;2.50;;;;;;;26.75;36.79;100650.34;105593;1256;60438;-62
2023/07/15 09:37:48;;;;;;;7.30;2.30;;;;;;;26.72;36.86;100649.36;105642;1260;63750;-61
2023/07/15 09:40:16;;;;;;;4.10;2.00;;;;;;;26.73;36.82;100647.64;106281;1254;60402;-63
2023/07/15 09:42:54;;;;;;;5.40;2.10;;;;;;;26.76;37.34;100646.48;105772;1256;60828;-63
2023/07/15 09:45:34;;;;;;;4.50;2.30;;;;;;;26.81;37.69;100648.37;105258;1263;64884;-63
2023/07/15 09:48:10;;;;;;;6.00;2.30;;;;;;;26.82;37.76;100654.21;105490;1251;61383;-61
2023/07/15 09:50:42;;;;;;;7.20;1.90;;;;;;;26.79;37.05;100654.20;105668;1251;63668;-62
2023/07/15 09:53:10;;;;;;;5.30;1.90;;;;;;;26.81;36.90;100655.92;105653;1253;60468;-62
2023/07/15 09:55:38;;;;;;;6.60;3.00;;;;;;;26.90;37.10;100655.73;105779;1256;60709;-60
2023/07/15 09:58:13;;;;;;;6.10;2.60;;;;;;;26.98;36.38;100654.48;105741;1251;63637;-63
2023/07/15 10:00:43;;;;;;;6.50;2.20;;;;;;;27.07;36.00;100651.93;105575;1251;61310;-65
2023/07/15 10:03:39;;;;;;;7.30;2.30;;;;;;;27.14;35.76;100648.36;105710;1257;63798;-62
2023/07/15 10:06:07;;;;;;;8.60;2.50;;;;;;;27.19;35.81;100649.36;105618;1252;60430;-63
2023/07/15 10:08:35;;;;;;;5.40;2.30;;;;;;;27.23;36.42;100650.73;105696;1251;60469;-63
2023/07/15 10:11:02;;;;;;;5.30;2.20;;;;;;;27.29;36.60;100642.64;105506;1258;64896;-60
2023/07/15 10:13:30;;;;;;;7.80;2.60;;;;;;;27.33;36.52;100635.69;105720;1251;61418;-59
2023/07/15 10:15:57;;;;;;;4.50;2.00;;;;;;;27.33;36.81;100638.48;105423;1254;63764;-61
2023/07/15 10:18:25;;;;;;;3.70;2.00;;;;;;;27.30;36.34;100634.14;105608;1257;60458;-62
2023/07/15 10:20:54;;;;;;;4.80;1.80;;;;;;;27.32;36.30;100633.60;105498;1259;60363;-63
2023/07/15 10:23:25;;;;;;;4.40;2.30;;;;;;;27.36;35.62;100635.21;105566;1259;64899;-62
2023/07/15 10:26:18;;;;;;;8.60;2.40;;;;;;;27.39;35.13;100636.37;106037;1251;61866;-65
2023/07/15 10:28:51;;;;;;;4.70;2.50;;;;;;;27.50;35.34;100634.86;105962;1256;63870;-65
2023/07/15 10:31:22;;;;;;;4.80;2.60;;;;;;;27.67;34.81;100632.49;105641;1251;60589;-65
2023/07/15 10:33:57;;;;;;;4.50;2.00;;;;;;;27.81;34.92;100635.66;105528;1257;60485;-65
2023/07/15 10:36:35;;;;;;;5.90;2.50;;;;;;;27.91;34.47;100632.69;105989;1252;63739;-65
2023/07/15 10:39:13;;;;;;;4.80;2.00;;;;;;;27.96;33.85;100629.22;106271;1256;60456;-66
2023/07/15 10:41:45;;;;;;;5.70;2.90;;;;;;;27.96;33.38;100629.10;105610;1253;63802;-67
2023/07/15 10:44:17;;;;;;;4.80;2.30;;;;;;;27.88;33.41;100627.48;109400;1251;58978;-65
2023/07/15 10:47:06;;;;;;;6.60;2.00;;;;;;;27.81;33.49;100625.55;109484;1250;58195;-63
2023/07/15 10:49:34;;;;;;;4.50;2.20;;;;;;;27.74;33.93;100623.10;109424;1251;65012;-62
2023/07/15 10:52:05;;;;;;;4.90;2.50;;;;;;;27.78;34.22;100620.55;109339;1250;61546;-62
2023/07/15 10:54:36;;;;;;;5.20;2.40;;;;;;;27.91;34.32;100619.27;109429;1251;63726;-61
2023/07/15 10:57:11;;;;;;;7.30;2.40;;;;;;;28.06;33.80;100611.88;107947;1254;60622;-61
2023/07/15 10:59:39;;;;;;;4.80;1.80;;;;;;;28.23;33.61;100606.92;105636;1256;62205;-60
2023/07/15 11:02:07;;;;;;;4.00;1.90;;;;;;;28.39;33.10;100603.43;105481;1251;63691;-60
2023/07/15 11:04:36;;;;;;;5.40;2.30;;;;;;;28.49;33.07;100599.93;105655;1252;61475;-60
2023/07/15 11:07:05;;;;;;;6.20;2.60;;;;;;;28.51;33.55;100604.08;105645;1257;63685;-58
2023/07/15 11:09:36;;;;;;;7.20;2.60;;;;;;;28.46;34.98;100608.14;105713;1251;60472;-59
2023/07/15 11:12:09;;;;;;;4.80;2.50;;;;;;;28.42;36.11;100609.84;105780;1256;60352;-59
2023/07/15 11:14:42;;;;;;;5.40;2.50;;;;;;;28.44;35.51;100610.14;105602;1256;63641;-60
2023/07/15 11:17:13;;;;;;;4.00;1.70;;;;;;;28.52;33.03;100608.50;105810;1252;61309;-63
2023/07/15 11:19:45;;;;;;;;;;;;;;;28.61;31.44;100606.05;105778;1254;64380;-64
2023/07/15 11:22:12;;;;;;;4.90;2.20;;;;;;;28.62;31.33;100609.25;105806;1257;60541;-60
2023/07/15 11:24:40;;;;;;;5.10;2.10;;;;;;;28.64;31.41;100606.69;106158;1258;60338;-59
2023/07/15 11:27:07;;;;;;;4.60;1.80;;;;;;;28.68;31.68;100605.68;105592;1257;64931;-60